Thomson Majesty — 9HA2188 — position and weather

sailwx.info

Track history (hours):
 
Tides and Currents Weather Stations Pressure Air Temp Water Temp Dewpoint Dewpoint Depression Visibility Wind Speed Wind Dir Waves Ship Positions

Thomson Majesty

Last reported at 2017-Jul-28 08:24 UTC. Time now 2017-Jul-28 08:38 UTC.
Position N 43°33' E 010°18'.

Length 207 m; draft 6.2 m.

Type: Ship. MMSI: 248124000.

Date/timePositionNaut miles runAvg speedWind from/ knotsBaromVisibWave heightAir tempDewpointWater temp
2017-Jul-28 08:24N 43°33' E 010°18'0 0.0
2017-Jul-28 08:00N 43°33' E 010°18'0 0.0
2017-Jul-28 07:27N 43°33' E 010°18'0 0.0
2017-Jul-28 07:00N 43°33' E 010°18'0 0.0
2017-Jul-28 06:30N 43°33' E 010°18'0 0.0
2017-Jul-28 06:00N 43°33' E 010°18'0 0.4
2017-Jul-28 05:30N 43°33' E 010°18'3 5.8
2017-Jul-28 05:00N 43°31' E 010°15'612.2
2017-Jul-28 04:30N 43°27' E 010°08'4 8.9
2017-Jul-28 04:00N 43°24' E 010°04'4 8.4
2017-Jul-28 03:30N 43°21' E 009°59'4 8.4
2017-Jul-28 03:00N 43°18' E 009°55'4 8.3
2017-Jul-28 02:30N 43°16' E 009°51'4 8.1
2017-Jul-28 02:00N 43°15' E 009°45'4 8.4
2017-Jul-28 01:30N 43°16' E 009°40'4 8.5
2017-Jul-28 01:00N 43°17' E 009°34'4 8.6
2017-Jul-28 00:30N 43°18' E 009°28'4 8.5
2017-Jul-28 00:00N 43°19' E 009°23'4 8.7
2017-Jul-27 23:30N 43°21' E 009°17'4 8.8
2017-Jul-27 23:00N 43°22' E 009°12'4 8.7
2017-Jul-27 22:30N 43°24' E 009°06'4 8.6
2017-Jul-27 22:00N 43°25' E 009°00'4 8.6
2017-Jul-27 21:30N 43°26' E 008°54'4 8.6
2017-Jul-27 21:00N 43°27' E 008°49'4 8.2
2017-Jul-27 20:29N 43°24' E 008°44'5 9.2
2017-Jul-27 19:54N 43°19' E 008°42'3 8.8
2017-Jul-27 19:30N 43°16' E 008°42'4 8.6
2017-Jul-27 19:00N 43°12' E 008°43'4 8.5
2017-Jul-27 18:30N 43°07' E 008°44'4 8.6
2017-Jul-27 18:00N 43°03' E 008°45'4 8.5
2017-Jul-27 17:30N 42°59' E 008°45'4 8.2
2017-Jul-27 17:00N 42°55' E 008°45'4 8.5
2017-Jul-27 16:30N 42°51' E 008°45'5 9.4
2017-Jul-27 16:00N 42°46' E 008°45'5 9.9
2017-Jul-27 15:30N 42°41' E 008°46'4 8.9
2017-Jul-27 15:00N 42°36' E 008°46'2 1.7
2017-Jul-27 14:01N 42°35' E 008°46'0 0.8
2017-Jul-27 13:30N 42°34' E 008°46'0 0.2
2017-Jul-27 13:00N 42°34' E 008°46'0 0.8
2017-Jul-27 12:30N 42°34' E 008°47'0 0.3
2017-Jul-27 12:00N 42°34' E 008°47'0 0.3
2017-Jul-27 11:28N 42°35' E 008°47'0 0.5
2017-Jul-27 10:58N 42°34' E 008°46'0 0.1
2017-Jul-27 10:25N 42°34' E 008°46'0 0.1
2017-Jul-27 09:58N 42°34' E 008°46'0 0.2
2017-Jul-27 09:28N 42°34' E 008°46'0 0.1
2017-Jul-27 08:58N 42°34' E 008°46'0 0.0
2017-Jul-27 08:28N 42°34' E 008°46'0 0.1
2017-Jul-27 07:55N 42°34' E 008°46'0 0.1
2017-Jul-27 07:22N 42°34' E 008°46'0 0.0
2017-Jul-27 06:55N 42°34' E 008°46'0 0.0
2017-Jul-27 05:40N 42°34' E 008°46'0 0.0
2017-Jul-27 05:22N 42°34' E 008°46'0 0.0
2017-Jul-27 04:43N 42°34' E 008°46'0 0.0
2017-Jul-27 04:21N 42°34' E 008°46'3 5.9
2017-Jul-27 03:49N 42°36' E 008°42'413.1
2017-Jul-27 03:30N 42°37' E 008°37'713.6
2017-Jul-27 03:00N 42°38' E 008°28'713.5
2017-Jul-27 02:30N 42°39' E 008°19'713.1
2017-Jul-27 02:00N 42°40' E 008°10'612.7
2017-Jul-27 01:30N 42°41' E 008°01'612.5
2017-Jul-27 01:00N 42°42' E 007°53'612.5
2017-Jul-27 00:30N 42°43' E 007°45'612.5
2017-Jul-27 00:00N 42°43' E 007°36'612.4
2017-Jul-26 23:30N 42°44' E 007°28'612.7
2017-Jul-26 23:00N 42°45' E 007°19'613.0
2017-Jul-26 22:30N 42°46' E 007°11'612.8
2017-Jul-26 22:00N 42°47' E 007°02'612.3
2017-Jul-26 21:30N 42°48' E 006°54'612.0
2017-Jul-26 21:00N 42°49' E 006°46'611.7
2017-Jul-26 20:30N 42°50' E 006°38'611.8
2017-Jul-26 20:00N 42°51' E 006°30'510.4
2017-Jul-26 19:30N 42°52' E 006°23'612.7
2017-Jul-26 19:00N 42°53' E 006°14'2915.7
2017-Jul-26 17:08N 42°56' E 005°34'215.6
2017-Jul-26 17:00N 42°56' E 005°32'815.8
2017-Jul-26 16:30N 42°58' E 005°21'816.1
2017-Jul-26 16:00N 42°58' E 005°10'816.2
2017-Jul-26 15:30N 42°59' E 004°59'816.1
2017-Jul-26 15:00N 42°59' E 004°48'1616.0
2017-Jul-26 14:00N 42°59' E 004°26'815.7
2017-Jul-26 13:30N 42°59' E 004°15'815.9
2017-Jul-26 13:01N 43°01' E 004°05'816.1
2017-Jul-26 12:30N 43°05' E 003°55'816.2
2017-Jul-26 12:01N 43°09' E 003°45'815.3
2017-Jul-26 11:30N 43°10' E 003°35'917.2
2017-Jul-26 10:59N 43°02' E 003°32'11717.1
2017-Jul-26 04:08N 41°08' E 002°54'217.4
2017-Jul-26 04:00N 41°06' E 002°53'917.5
2017-Jul-26 03:30N 40°57' E 002°50'917.9
2017-Jul-26 03:00N 40°49' E 002°46'918.2
2017-Jul-26 02:30N 40°40' E 002°42'918.5
2017-Jul-26 02:00N 40°31' E 002°39'918.3
2017-Jul-26 01:30N 40°23' E 002°35'918.2
2017-Jul-26 01:00N 40°14' E 002°31'918.0
2017-Jul-26 00:30N 40°06' E 002°27'918.1
2017-Jul-26 00:00N 39°57' E 002°24'918.2
2017-Jul-25 23:30N 39°48' E 002°20'918.3
2017-Jul-25 23:00N 39°39' E 002°16'815.6
2017-Jul-25 22:30N 39°32' E 002°17'918.1
2017-Jul-25 22:00N 39°26' E 002°26'816.0
2017-Jul-25 21:30N 39°29' E 002°36'4 7.3
2017-Jul-25 20:58N 39°33' E 002°38'0 0.0
2017-Jul-25 20:28N 39°33' E 002°38'0 0.0
2017-Jul-25 19:58N 39°33' E 002°38'0 0.0
2017-Jul-25 19:28N 39°33' E 002°38'0 0.0
2017-Jul-25 18:58N 39°33' E 002°38'0 0.0
2017-Jul-25 18:28N 39°33' E 002°38'0 0.0
2017-Jul-25 17:58N 39°33' E 002°38'0 0.0
2017-Jul-25 17:28N 39°33' E 002°38'0 0.0
2017-Jul-25 16:58N 39°33' E 002°38'0 0.0
2017-Jul-25 16:28N 39°33' E 002°38'0 0.0
2017-Jul-25 15:58N 39°33' E 002°38'0 0.0
2017-Jul-25 15:28N 39°33' E 002°38'0 0.0
2017-Jul-25 14:58N 39°33' E 002°38'0 0.0
2017-Jul-25 13:58N 39°33' E 002°38'0 0.0
2017-Jul-25 13:19N 39°33' E 002°38'0 0.0
2017-Jul-25 12:58N 39°33' E 002°38'0 0.0
2017-Jul-25 12:28N 39°33' E 002°38'0 0.0
2017-Jul-25 11:58N 39°33' E 002°38'0 0.0
2017-Jul-25 11:28N 39°33' E 002°38'0 0.0
2017-Jul-25 10:58N 39°33' E 002°38'0 0.0
2017-Jul-25 10:28N 39°33' E 002°38'0 0.0
2017-Jul-25 09:58N 39°33' E 002°38'0 0.0
2017-Jul-25 09:28N 39°33' E 002°38'0 0.0
2017-Jul-25 08:58N 39°33' E 002°38'0 0.0
2017-Jul-25 08:28N 39°33' E 002°38'0 0.0
2017-Jul-25 07:58N 39°33' E 002°38'0 0.0
2017-Jul-25 07:28N 39°33' E 002°38'0 0.0
2017-Jul-25 06:58N 39°33' E 002°38'0 0.0
2017-Jul-25 06:28N 39°33' E 002°38'0 0.0
2017-Jul-25 05:58N 39°33' E 002°38'0 0.0
2017-Jul-25 05:28N 39°33' E 002°38'0 0.0
2017-Jul-25 04:58N 39°33' E 002°38'0 0.0
2017-Jul-25 04:28N 39°33' E 002°38'0 0.0
2017-Jul-25 03:58N 39°33' E 002°38'0 0.0
2017-Jul-25 03:29N 39°33' E 002°38'1 2.1
2017-Jul-25 03:00N 39°32' E 002°38'815.9
2017-Jul-25 02:30N 39°26' E 002°32'612.8
2017-Jul-25 02:00N 39°26' E 002°23'713.2
2017-Jul-25 01:30N 39°26' E 002°15'713.2
2017-Jul-25 01:00N 39°26' E 002°06'713.2
2017-Jul-25 00:30N 39°26' E 001°58'713.1
2017-Jul-25 00:00N 39°26' E 001°49'713.2
2017-Jul-24 23:30N 39°26' E 001°41'713.4
2017-Jul-24 23:00N 39°26' E 001°32'713.4
2017-Jul-24 22:30N 39°26' E 001°23'1713.6
2017-Jul-24 21:17N 39°25' E 001°02'413.6
2017-Jul-24 20:58N 39°25' E 000°56'613.5
2017-Jul-24 20:30N 39°25' E 000°48'713.5
2017-Jul-24 19:57N 39°25' E 000°39'813.5
2017-Jul-24 19:23N 39°25' E 000°28'28 1.7
2017-Jul-24 02:49N 39°02' E 000°07'412.6
2017-Jul-24 02:29N 38°59' E 000°11'712.6
2017-Jul-24 01:56N 38°53' E 000°16'512.4
2017-Jul-24 01:30N 38°49' E 000°20'612.4
2017-Jul-24 01:00N 38°44' E 000°25'611.0
2017-Jul-24 00:27N 38°38' E 000°24'613.1
2017-Jul-24 00:00N 38°33' E 000°20'613.0
2017-Jul-23 23:30N 38°28' E 000°15'712.7
2017-Jul-23 22:57N 38°22' E 000°11'612.6
2017-Jul-23 22:30N 38°17' E 000°07'612.7
2017-Jul-23 22:00N 38°12' E 000°02'612.3
2017-Jul-23 21:30N 38°07' W 000°02'612.0
2017-Jul-23 21:00N 38°02' W 000°06'612.1
2017-Jul-23 20:30N 37°57' W 000°11'612.3
2017-Jul-23 19:59N 37°52' W 000°15'612.4
2017-Jul-23 19:30N 37°46' W 000°19'612.5
2017-Jul-23 19:00N 37°41' W 000°23'612.7
2017-Jul-23 18:30N 37°36' W 000°28'612.8
2017-Jul-23 18:00N 37°32' W 000°34'612.9
2017-Jul-23 17:30N 37°31' W 000°42'612.9
2017-Jul-23 17:00N 37°31' W 000°50'9 0.8
2017-Jul-23 04:53N 37°32' W 001°01'914.1
2017-Jul-23 04:12N 37°25' W 001°09'312.5
2017-Jul-23 04:00N 37°23' W 001°11'612.4
2017-Jul-23 03:29N 37°17' W 001°16'612.2
2017-Jul-23 03:00N 37°13' W 001°20'612.7
2017-Jul-23 02:31N 37°08' W 001°25'916.0
2017-Jul-23 01:56N 37°01' W 001°32'716.1
2017-Jul-23 01:30N 36°55' W 001°38'1016.5
2017-Jul-23 00:53N 36°47' W 001°45'616.4
2017-Jul-23 00:31N 36°42' W 001°49'1116.2
2017-Jul-22 23:49N 36°33' W 001°59'516.5
2017-Jul-22 23:30N 36°29' W 002°03'816.4
2017-Jul-22 23:00N 36°23' W 002°09'816.7
2017-Jul-22 22:30N 36°22' W 002°20'  
2017-Jul-19 17:31N 36°19' W 002°58'117.4
2017-Jul-19 17:28N 36°19' W 002°57'817.4
2017-Jul-19 17:00N 36°21' W 002°47'917.1
2017-Jul-19 16:29N 36°22' W 002°36'1616.6
2017-Jul-19 15:33N 36°25' W 002°17'116.8
2017-Jul-19 15:30N 36°25' W 002°16'7916.9
2017-Jul-19 10:51N 37°10' W 000°55'617.0
2017-Jul-19 10:29N 37°13' W 000°49'817.0
2017-Jul-19 10:00N 37°18' W 000°41'916.8
2017-Jul-19 09:29N 37°23' W 000°32'816.9
2017-Jul-19 09:00N 37°28' W 000°23'917.2
2017-Jul-19 08:30N 37°33' W 000°15'917.7
2017-Jul-19 08:00N 37°38' W 000°06'2017.6
2017-Jul-19 06:51N 37°50' E 000°15'817.6
2017-Jul-19 06:25N 37°55' E 000°23'717.1
2017-Jul-19 05:59N 37°59' E 000°31'817.0
2017-Jul-19 05:30N 38°04' E 000°39'917.3
2017-Jul-19 05:00N 38°09' E 000°48'917.3
2017-Jul-19 04:30N 38°14' E 000°57'817.1
2017-Jul-19 04:00N 38°19' E 001°05'917.1
2017-Jul-19 03:30N 38°24' E 001°14'917.1
2017-Jul-19 03:00N 38°29' E 001°23'917.2
2017-Jul-19 02:29N 38°34' E 001°32'817.2
2017-Jul-19 02:00N 38°40' E 001°41'917.1
2017-Jul-19 01:30N 38°46' E 001°48'817.0
2017-Jul-19 01:00N 38°52' E 001°55'916.9
2017-Jul-19 00:30N 38°58' E 002°03'817.0
2017-Jul-19 00:00N 39°04' E 002°10'817.1
2017-Jul-18 23:30N 39°11' E 002°18'917.2
2017-Jul-18 23:00N 39°17' E 002°25'917.3
2017-Jul-18 22:30N 39°24' E 002°32'917.5
2017-Jul-18 22:00N 39°31' E 002°38'2 3.1
2017-Jul-18 21:29N 39°33' E 002°38'0 0.0
2017-Jul-18 20:59N 39°33' E 002°38'0 0.0
2017-Jul-18 20:29N 39°33' E 002°38'0 0.0
2017-Jul-18 19:59N 39°33' E 002°38'0 0.0
2017-Jul-18 19:29N 39°33' E 002°38'0 0.0
2017-Jul-18 18:59N 39°33' E 002°38'0 0.0
2017-Jul-18 18:29N 39°33' E 002°38'0 0.0
2017-Jul-18 17:59N 39°33' E 002°38'0 0.0
2017-Jul-18 17:26N 39°33' E 002°38'0 0.0
2017-Jul-18 16:59N 39°33' E 002°38'0 0.0
2017-Jul-18 16:29N 39°33' E 002°38'0 0.0
2017-Jul-18 15:59N 39°33' E 002°38'0 0.0
2017-Jul-18 15:29N 39°33' E 002°38'0 0.0
2017-Jul-18 14:59N 39°33' E 002°38'0 0.0
2017-Jul-18 13:59N 39°33' E 002°38'0 0.0
2017-Jul-18 13:29N 39°33' E 002°38'0 0.0
2017-Jul-18 12:59N 39°33' E 002°38'0 0.0
2017-Jul-18 12:29N 39°33' E 002°38'0 0.0
2017-Jul-18 11:59N 39°33' E 002°38'0 0.0
2017-Jul-18 11:29N 39°33' E 002°38'0 0.0
2017-Jul-18 10:59N 39°33' E 002°38'0 0.0
2017-Jul-18 10:29N 39°33' E 002°38'0 0.0
2017-Jul-18 09:59N 39°33' E 002°38'0 0.0
2017-Jul-18 09:26N 39°33' E 002°38'0 0.0
2017-Jul-18 08:59N 39°33' E 002°38'0 0.0
2017-Jul-18 08:29N 39°33' E 002°38'  
Track history (hours):
 
Tides and Currents Weather Stations Pressure Air Temp Water Temp Dewpoint Dewpoint Depression Visibility Wind Speed Wind Dir Waves Ship Positions

Thomson Majesty

Last reported at 2017-Jul-28 08:24 UTC. Time now 2017-Jul-28 08:38 UTC.
Position N 43°33' E 010°18'.

Length 207 m; draft 6.2 m.

Type: Ship. MMSI: 248124000.

Date/timePositionNaut miles runAvg speedWind from/ knotsBaromVisibWave heightAir tempDewpointWater temp
2017-Jul-28 08:24N 43°33' E 010°18'0 0.0
2017-Jul-28 08:00N 43°33' E 010°18'0 0.0
2017-Jul-28 07:27N 43°33' E 010°18'0 0.0
2017-Jul-28 07:00N 43°33' E 010°18'0 0.0
2017-Jul-28 06:30N 43°33' E 010°18'0 0.0
2017-Jul-28 06:00N 43°33' E 010°18'0 0.4
2017-Jul-28 05:30N 43°33' E 010°18'3 5.8
2017-Jul-28 05:00N 43°31' E 010°15'612.2
2017-Jul-28 04:30N 43°27' E 010°08'4 8.9
2017-Jul-28 04:00N 43°24' E 010°04'4 8.4
2017-Jul-28 03:30N 43°21' E 009°59'4 8.4
2017-Jul-28 03:00N 43°18' E 009°55'4 8.3
2017-Jul-28 02:30N 43°16' E 009°51'4 8.1
2017-Jul-28 02:00N 43°15' E 009°45'4 8.4
2017-Jul-28 01:30N 43°16' E 009°40'4 8.5
2017-Jul-28 01:00N 43°17' E 009°34'4 8.6
2017-Jul-28 00:30N 43°18' E 009°28'4 8.5
2017-Jul-28 00:00N 43°19' E 009°23'4 8.7
2017-Jul-27 23:30N 43°21' E 009°17'4 8.8
2017-Jul-27 23:00N 43°22' E 009°12'4 8.7
2017-Jul-27 22:30N 43°24' E 009°06'4 8.6
2017-Jul-27 22:00N 43°25' E 009°00'4 8.6
2017-Jul-27 21:30N 43°26' E 008°54'4 8.6
2017-Jul-27 21:00N 43°27' E 008°49'4 8.2
2017-Jul-27 20:29N 43°24' E 008°44'5 9.2
2017-Jul-27 19:54N 43°19' E 008°42'3 8.8
2017-Jul-27 19:30N 43°16' E 008°42'4 8.6
2017-Jul-27 19:00N 43°12' E 008°43'4 8.5
2017-Jul-27 18:30N 43°07' E 008°44'4 8.6
2017-Jul-27 18:00N 43°03' E 008°45'4 8.5
2017-Jul-27 17:30N 42°59' E 008°45'4 8.2
2017-Jul-27 17:00N 42°55' E 008°45'4 8.5
2017-Jul-27 16:30N 42°51' E 008°45'5 9.4
2017-Jul-27 16:00N 42°46' E 008°45'5 9.9
2017-Jul-27 15:30N 42°41' E 008°46'4 8.9
2017-Jul-27 15:00N 42°36' E 008°46'2 1.7
2017-Jul-27 14:01N 42°35' E 008°46'0 0.8
2017-Jul-27 13:30N 42°34' E 008°46'0 0.2
2017-Jul-27 13:00N 42°34' E 008°46'0 0.8
2017-Jul-27 12:30N 42°34' E 008°47'0 0.3
2017-Jul-27 12:00N 42°34' E 008°47'0 0.3
2017-Jul-27 11:28N 42°35' E 008°47'0 0.5
2017-Jul-27 10:58N 42°34' E 008°46'0 0.1
2017-Jul-27 10:25N 42°34' E 008°46'0 0.1
2017-Jul-27 09:58N 42°34' E 008°46'0 0.2
2017-Jul-27 09:28N 42°34' E 008°46'0 0.1
2017-Jul-27 08:58N 42°34' E 008°46'0 0.0
2017-Jul-27 08:28N 42°34' E 008°46'0 0.1
2017-Jul-27 07:55N 42°34' E 008°46'0 0.1
2017-Jul-27 07:22N 42°34' E 008°46'0 0.0
2017-Jul-27 06:55N 42°34' E 008°46'0 0.0
2017-Jul-27 05:40N 42°34' E 008°46'0 0.0
2017-Jul-27 05:22N 42°34' E 008°46'0 0.0
2017-Jul-27 04:43N 42°34' E 008°46'0 0.0
2017-Jul-27 04:21N 42°34' E 008°46'3 5.9
2017-Jul-27 03:49N 42°36' E 008°42'413.1
2017-Jul-27 03:30N 42°37' E 008°37'713.6
2017-Jul-27 03:00N 42°38' E 008°28'713.5
2017-Jul-27 02:30N 42°39' E 008°19'713.1
2017-Jul-27 02:00N 42°40' E 008°10'612.7
2017-Jul-27 01:30N 42°41' E 008°01'612.5
2017-Jul-27 01:00N 42°42' E 007°53'612.5
2017-Jul-27 00:30N 42°43' E 007°45'612.5
2017-Jul-27 00:00N 42°43' E 007°36'612.4
2017-Jul-26 23:30N 42°44' E 007°28'612.7
2017-Jul-26 23:00N 42°45' E 007°19'613.0
2017-Jul-26 22:30N 42°46' E 007°11'612.8
2017-Jul-26 22:00N 42°47' E 007°02'612.3
2017-Jul-26 21:30N 42°48' E 006°54'612.0
2017-Jul-26 21:00N 42°49' E 006°46'611.7
2017-Jul-26 20:30N 42°50' E 006°38'611.8
2017-Jul-26 20:00N 42°51' E 006°30'510.4
2017-Jul-26 19:30N 42°52' E 006°23'612.7
2017-Jul-26 19:00N 42°53' E 006°14'2915.7
2017-Jul-26 17:08N 42°56' E 005°34'215.6
2017-Jul-26 17:00N 42°56' E 005°32'815.8
2017-Jul-26 16:30N 42°58' E 005°21'816.1
2017-Jul-26 16:00N 42°58' E 005°10'816.2
2017-Jul-26 15:30N 42°59' E 004°59'816.1
2017-Jul-26 15:00N 42°59' E 004°48'1616.0
2017-Jul-26 14:00N 42°59' E 004°26'815.7
2017-Jul-26 13:30N 42°59' E 004°15'815.9
2017-Jul-26 13:01N 43°01' E 004°05'816.1
2017-Jul-26 12:30N 43°05' E 003°55'816.2
2017-Jul-26 12:01N 43°09' E 003°45'815.3
2017-Jul-26 11:30N 43°10' E 003°35'917.2
2017-Jul-26 10:59N 43°02' E 003°32'11717.1
2017-Jul-26 04:08N 41°08' E 002°54'217.4
2017-Jul-26 04:00N 41°06' E 002°53'917.5
2017-Jul-26 03:30N 40°57' E 002°50'917.9
2017-Jul-26 03:00N 40°49' E 002°46'918.2
2017-Jul-26 02:30N 40°40' E 002°42'918.5
2017-Jul-26 02:00N 40°31' E 002°39'918.3
2017-Jul-26 01:30N 40°23' E 002°35'918.2
2017-Jul-26 01:00N 40°14' E 002°31'918.0
2017-Jul-26 00:30N 40°06' E 002°27'918.1
2017-Jul-26 00:00N 39°57' E 002°24'918.2
2017-Jul-25 23:30N 39°48' E 002°20'918.3
2017-Jul-25 23:00N 39°39' E 002°16'815.6
2017-Jul-25 22:30N 39°32' E 002°17'918.1
2017-Jul-25 22:00N 39°26' E 002°26'816.0
2017-Jul-25 21:30N 39°29' E 002°36'4 7.3
2017-Jul-25 20:58N 39°33' E 002°38'0 0.0
2017-Jul-25 20:28N 39°33' E 002°38'0 0.0
2017-Jul-25 19:58N 39°33' E 002°38'0 0.0
2017-Jul-25 19:28N 39°33' E 002°38'0 0.0
2017-Jul-25 18:58N 39°33' E 002°38'0 0.0
2017-Jul-25 18:28N 39°33' E 002°38'0 0.0
2017-Jul-25 17:58N 39°33' E 002°38'0 0.0
2017-Jul-25 17:28N 39°33' E 002°38'0 0.0
2017-Jul-25 16:58N 39°33' E 002°38'0 0.0
2017-Jul-25 16:28N 39°33' E 002°38'0 0.0
2017-Jul-25 15:58N 39°33' E 002°38'0 0.0
2017-Jul-25 15:28N 39°33' E 002°38'0 0.0
2017-Jul-25 14:58N 39°33' E 002°38'0 0.0
2017-Jul-25 13:58N 39°33' E 002°38'0 0.0
2017-Jul-25 13:19N 39°33' E 002°38'0 0.0
2017-Jul-25 12:58N 39°33' E 002°38'0 0.0
2017-Jul-25 12:28N 39°33' E 002°38'0 0.0
2017-Jul-25 11:58N 39°33' E 002°38'0 0.0
2017-Jul-25 11:28N 39°33' E 002°38'0 0.0
2017-Jul-25 10:58N 39°33' E 002°38'0 0.0
2017-Jul-25 10:28N 39°33' E 002°38'0 0.0
2017-Jul-25 09:58N 39°33' E 002°38'0 0.0
2017-Jul-25 09:28N 39°33' E 002°38'0 0.0
2017-Jul-25 08:58N 39°33' E 002°38'0 0.0
2017-Jul-25 08:28N 39°33' E 002°38'0 0.0
2017-Jul-25 07:58N 39°33' E 002°38'0 0.0
2017-Jul-25 07:28N 39°33' E 002°38'0 0.0
2017-Jul-25 06:58N 39°33' E 002°38'0 0.0
2017-Jul-25 06:28N 39°33' E 002°38'0 0.0
2017-Jul-25 05:58N 39°33' E 002°38'0 0.0
2017-Jul-25 05:28N 39°33' E 002°38'0 0.0
2017-Jul-25 04:58N 39°33' E 002°38'0 0.0
2017-Jul-25 04:28N 39°33' E 002°38'0 0.0
2017-Jul-25 03:58N 39°33' E 002°38'0 0.0
2017-Jul-25 03:29N 39°33' E 002°38'1 2.1
2017-Jul-25 03:00N 39°32' E 002°38'815.9
2017-Jul-25 02:30N 39°26' E 002°32'612.8
2017-Jul-25 02:00N 39°26' E 002°23'713.2
2017-Jul-25 01:30N 39°26' E 002°15'713.2
2017-Jul-25 01:00N 39°26' E 002°06'713.2
2017-Jul-25 00:30N 39°26' E 001°58'713.1
2017-Jul-25 00:00N 39°26' E 001°49'713.2
2017-Jul-24 23:30N 39°26' E 001°41'713.4
2017-Jul-24 23:00N 39°26' E 001°32'713.4
2017-Jul-24 22:30N 39°26' E 001°23'1713.6
2017-Jul-24 21:17N 39°25' E 001°02'413.6
2017-Jul-24 20:58N 39°25' E 000°56'613.5
2017-Jul-24 20:30N 39°25' E 000°48'713.5
2017-Jul-24 19:57N 39°25' E 000°39'813.5
2017-Jul-24 19:23N 39°25' E 000°28'28 1.7
2017-Jul-24 02:49N 39°02' E 000°07'412.6
2017-Jul-24 02:29N 38°59' E 000°11'712.6
2017-Jul-24 01:56N 38°53' E 000°16'512.4
2017-Jul-24 01:30N 38°49' E 000°20'612.4
2017-Jul-24 01:00N 38°44' E 000°25'611.0
2017-Jul-24 00:27N 38°38' E 000°24'613.1
2017-Jul-24 00:00N 38°33' E 000°20'613.0
2017-Jul-23 23:30N 38°28' E 000°15'712.7
2017-Jul-23 22:57N 38°22' E 000°11'612.6
2017-Jul-23 22:30N 38°17' E 000°07'612.7
2017-Jul-23 22:00N 38°12' E 000°02'612.3
2017-Jul-23 21:30N 38°07' W 000°02'612.0
2017-Jul-23 21:00N 38°02' W 000°06'612.1
2017-Jul-23 20:30N 37°57' W 000°11'612.3
2017-Jul-23 19:59N 37°52' W 000°15'612.4
2017-Jul-23 19:30N 37°46' W 000°19'612.5
2017-Jul-23 19:00N 37°41' W 000°23'612.7
2017-Jul-23 18:30N 37°36' W 000°28'612.8
2017-Jul-23 18:00N 37°32' W 000°34'612.9
2017-Jul-23 17:30N 37°31' W 000°42'612.9
2017-Jul-23 17:00N 37°31' W 000°50'9 0.8
2017-Jul-23 04:53N 37°32' W 001°01'914.1
2017-Jul-23 04:12N 37°25' W 001°09'312.5
2017-Jul-23 04:00N 37°23' W 001°11'612.4
2017-Jul-23 03:29N 37°17' W 001°16'612.2
2017-Jul-23 03:00N 37°13' W 001°20'612.7
2017-Jul-23 02:31N 37°08' W 001°25'916.0
2017-Jul-23 01:56N 37°01' W 001°32'716.1
2017-Jul-23 01:30N 36°55' W 001°38'1016.5
2017-Jul-23 00:53N 36°47' W 001°45'616.4
2017-Jul-23 00:31N 36°42' W 001°49'1116.2
2017-Jul-22 23:49N 36°33' W 001°59'516.5
2017-Jul-22 23:30N 36°29' W 002°03'816.4
2017-Jul-22 23:00N 36°23' W 002°09'816.7
2017-Jul-22 22:30N 36°22' W 002°20'  
2017-Jul-19 17:31N 36°19' W 002°58'117.4
2017-Jul-19 17:28N 36°19' W 002°57'817.4
2017-Jul-19 17:00N 36°21' W 002°47'917.1
2017-Jul-19 16:29N 36°22' W 002°36'1616.6
2017-Jul-19 15:33N 36°25' W 002°17'116.8
2017-Jul-19 15:30N 36°25' W 002°16'7916.9
2017-Jul-19 10:51N 37°10' W 000°55'617.0
2017-Jul-19 10:29N 37°13' W 000°49'817.0
2017-Jul-19 10:00N 37°18' W 000°41'916.8
2017-Jul-19 09:29N 37°23' W 000°32'816.9
2017-Jul-19 09:00N 37°28' W 000°23'917.2
2017-Jul-19 08:30N 37°33' W 000°15'917.7
2017-Jul-19 08:00N 37°38' W 000°06'2017.6
2017-Jul-19 06:51N 37°50' E 000°15'817.6
2017-Jul-19 06:25N 37°55' E 000°23'717.1
2017-Jul-19 05:59N 37°59' E 000°31'817.0
2017-Jul-19 05:30N 38°04' E 000°39'917.3
2017-Jul-19 05:00N 38°09' E 000°48'917.3
2017-Jul-19 04:30N 38°14' E 000°57'817.1
2017-Jul-19 04:00N 38°19' E 001°05'917.1
2017-Jul-19 03:30N 38°24' E 001°14'917.1
2017-Jul-19 03:00N 38°29' E 001°23'917.2
2017-Jul-19 02:29N 38°34' E 001°32'817.2
2017-Jul-19 02:00N 38°40' E 001°41'917.1
2017-Jul-19 01:30N 38°46' E 001°48'817.0
2017-Jul-19 01:00N 38°52' E 001°55'916.9
2017-Jul-19 00:30N 38°58' E 002°03'817.0
2017-Jul-19 00:00N 39°04' E 002°10'817.1
2017-Jul-18 23:30N 39°11' E 002°18'917.2
2017-Jul-18 23:00N 39°17' E 002°25'917.3
2017-Jul-18 22:30N 39°24' E 002°32'917.5
2017-Jul-18 22:00N 39°31' E 002°38'2 3.1
2017-Jul-18 21:29N 39°33' E 002°38'0 0.0
2017-Jul-18 20:59N 39°33' E 002°38'0 0.0
2017-Jul-18 20:29N 39°33' E 002°38'0 0.0
2017-Jul-18 19:59N 39°33' E 002°38'0 0.0
2017-Jul-18 19:29N 39°33' E 002°38'0 0.0
2017-Jul-18 18:59N 39°33' E 002°38'0 0.0
2017-Jul-18 18:29N 39°33' E 002°38'0 0.0
2017-Jul-18 17:59N 39°33' E 002°38'0 0.0
2017-Jul-18 17:26N 39°33' E 002°38'0 0.0
2017-Jul-18 16:59N 39°33' E 002°38'0 0.0
2017-Jul-18 16:29N 39°33' E 002°38'0 0.0
2017-Jul-18 15:59N 39°33' E 002°38'0 0.0
2017-Jul-18 15:29N 39°33' E 002°38'0 0.0
2017-Jul-18 14:59N 39°33' E 002°38'0 0.0
2017-Jul-18 13:59N 39°33' E 002°38'0 0.0
2017-Jul-18 13:29N 39°33' E 002°38'0 0.0
2017-Jul-18 12:59N 39°33' E 002°38'0 0.0
2017-Jul-18 12:29N 39°33' E 002°38'0 0.0
2017-Jul-18 11:59N 39°33' E 002°38'0 0.0
2017-Jul-18 11:29N 39°33' E 002°38'0 0.0
2017-Jul-18 10:59N 39°33' E 002°38'0 0.0
2017-Jul-18 10:29N 39°33' E 002°38'0 0.0
2017-Jul-18 09:59N 39°33' E 002°38'0 0.0
2017-Jul-18 09:26N 39°33' E 002°38'0 0.0
2017-Jul-18 08:59N 39°33' E 002°38'0 0.0
2017-Jul-18 08:29N 39°33' E 002°38'  

Dump ship's entire track history